Terminal Aerodrome Forecast
Issued by NWS

Home | Current Version | Previous Version | Text Only | Print | Product List | Glossary On
Versions: 1 2 3 4 5 6 7 8 9 10 11 12 13 14
994
FTUS46 KSEW 141721
TAFPAE
TAF
KPAE 141721Z 1418/1518 VRB03KT P6SM BKN250
     FM150600 16005KT P6SM OVC120
     FM151200 17006KT P6SM SCT025 OVC040
     FM151400 17007KT P6SM -RA BKN020 OVC035=

USA.gov is the U.S. government's official web portal to all federal, state and local government web resources and services.